Time,TemperatureF,DewpointF,PressureIn,WindDirection,WindDirectionDegrees,WindSpeedMPH,WindSpeedGustMPH,Humidity,HourlyPrecipIn,Conditions,Clouds,dailyrainin,SoftwareType,DateUTC
2013-05-13 00:00:00,42.4,32.6,30.05,West,270,1.0,-999.0,68,0.00,,,0.00,Wunderground v.1.15,2013-05-13 04:00:00,
2013-05-13 00:05:00,42.4,32.6,30.05,West,270,1.0,-999.0,68,0.00,,,0.00,Wunderground v.1.15,2013-05-13 04:05:00,
2013-05-13 00:10:00,42.4,32.6,30.05,West,270,1.0,-999.0,68,0.00,,,0.00,Wunderground v.1.15,2013-05-13 04:10:00,
2013-05-13 00:15:00,42.4,32.6,30.05,West,270,1.0,-999.0,68,0.00,,,0.00,Wunderground v.1.15,2013-05-13 04:15:00,
2013-05-13 00:20:00,42.4,32.6,30.05,West,270,1.0,-999.0,68,0.00,,,0.00,Wunderground v.1.15,2013-05-13 04:20:00,
2013-05-13 00:25:00,42.4,32.6,30.05,West,270,1.0,-999.0,68,0.00,,,0.00,Wunderground v.1.15,2013-05-13 04:25:00,
2013-05-13 00:30:00,42.4,32.6,30.05,West,270,1.0,-999.0,68,0.00,,,0.00,Wunderground v.1.15,2013-05-13 04:30:00,
2013-05-13 00:35:00,42.4,32.6,30.05,West,270,1.0,-999.0,68,0.00,,,0.00,Wunderground v.1.15,2013-05-13 04:35:00,
2013-05-13 00:40:00,42.4,32.6,30.05,West,270,1.0,-999.0,68,0.00,,,0.00,Wunderground v.1.15,2013-05-13 04:40:00,
2013-05-13 00:45:00,40.9,33.6,30.04,East,90,0.0,-999.0,75,0.00,,,0.00,Wunderground v.1.15,2013-05-13 04:45:00,
2013-05-13 00:50:00,40.9,33.6,30.04,East,90,0.0,-999.0,75,0.00,,,0.00,Wunderground v.1.15,2013-05-13 04:50:00,
2013-05-13 00:55:00,40.9,33.6,30.04,East,90,0.0,-999.0,75,0.00,,,0.00,Wunderground v.1.15,2013-05-13 04:55:00,
2013-05-13 01:00:00,40.9,33.6,30.04,East,90,0.0,-999.0,75,0.00,,,0.00,Wunderground v.1.15,2013-05-13 05:00:00,
2013-05-13 01:05:00,40.9,33.6,30.04,East,90,0.0,-999.0,75,0.00,,,0.00,Wunderground v.1.15,2013-05-13 05:05:00,
2013-05-13 01:10:00,40.9,33.6,30.04,East,90,0.0,-999.0,75,0.00,,,0.00,Wunderground v.1.15,2013-05-13 05:10:00,
2013-05-13 01:15:00,40.1,34.1,30.04,SSE,158,0.0,-999.0,79,0.00,,,0.00,Wunderground v.1.15,2013-05-13 05:15:00,
2013-05-13 01:20:00,40.1,34.1,30.04,SSE,158,0.0,-999.0,79,0.00,,,0.00,Wunderground v.1.15,2013-05-13 05:20:00,
2013-05-13 01:25:00,40.1,34.1,30.04,SSE,158,0.0,-999.0,79,0.00,,,0.00,Wunderground v.1.15,2013-05-13 05:25:00,
2013-05-13 01:30:00,40.1,34.1,30.04,SSE,158,0.0,-999.0,79,0.00,,,0.00,Wunderground v.1.15,2013-05-13 05:30:00,
2013-05-13 01:35:00,40.1,34.1,30.04,SSE,158,0.0,-999.0,79,0.00,,,0.00,Wunderground v.1.15,2013-05-13 05:35:00,
2013-05-13 01:40:00,40.1,34.1,30.04,SSE,158,0.0,-999.0,79,0.00,,,0.00,Wunderground v.1.15,2013-05-13 05:40:00,
2013-05-13 01:45:00,40.2,33.2,30.03,West,270,1.0,-999.0,76,0.00,,,0.00,Wunderground v.1.15,2013-05-13 05:45:00,
2013-05-13 01:50:00,40.2,33.2,30.03,West,270,1.0,-999.0,76,0.00,,,0.00,Wunderground v.1.15,2013-05-13 05:50:00,
2013-05-13 01:55:00,40.2,33.2,30.03,West,270,1.0,-999.0,76,0.00,,,0.00,Wunderground v.1.15,2013-05-13 05:55:00,
2013-05-13 02:00:00,40.2,33.2,30.03,West,270,1.0,-999.0,76,0.00,,,0.00,Wunderground v.1.15,2013-05-13 06:00:00,
2013-05-13 02:05:00,40.2,33.2,30.03,West,270,1.0,-999.0,76,0.00,,,0.00,Wunderground v.1.15,2013-05-13 06:05:00,
2013-05-13 02:10:00,40.2,33.2,30.03,West,270,1.0,-999.0,76,0.00,,,0.00,Wunderground v.1.15,2013-05-13 06:10:00,
2013-05-13 02:15:00,38.7,33.7,30.04,ESE,113,1.0,-999.0,82,0.00,,,0.00,Wunderground v.1.15,2013-05-13 06:15:00,
2013-05-13 02:20:00,38.7,33.7,30.04,ESE,113,1.0,-999.0,82,0.00,,,0.00,Wunderground v.1.15,2013-05-13 06:20:00,
2013-05-13 02:25:00,38.7,33.7,30.04,ESE,113,1.0,-999.0,82,0.00,,,0.00,Wunderground v.1.15,2013-05-13 06:25:00,
2013-05-13 02:30:00,38.7,33.7,30.04,ESE,113,1.0,-999.0,82,0.00,,,0.00,Wunderground v.1.15,2013-05-13 06:30:00,
2013-05-13 02:35:00,38.7,33.7,30.04,ESE,113,1.0,-999.0,82,0.00,,,0.00,Wunderground v.1.15,2013-05-13 06:35:00,
2013-05-13 02:40:00,38.7,33.7,30.04,ESE,113,1.0,-999.0,82,0.00,,,0.00,Wunderground v.1.15,2013-05-13 06:40:00,
2013-05-13 02:45:00,37.8,34.0,30.05,WSW,248,0.0,-999.0,86,0.00,,,0.00,Wunderground v.1.15,2013-05-13 06:45:00,
2013-05-13 02:50:00,37.8,34.0,30.05,WSW,248,0.0,-999.0,86,0.00,,,0.00,Wunderground v.1.15,2013-05-13 06:50:00,
2013-05-13 02:55:00,37.8,34.0,30.05,WSW,248,0.0,-999.0,86,0.00,,,0.00,Wunderground v.1.15,2013-05-13 06:55:00,
2013-05-13 03:00:00,37.8,34.0,30.05,WSW,248,0.0,-999.0,86,0.00,,,0.00,Wunderground v.1.15,2013-05-13 07:00:00,
2013-05-13 03:05:00,37.8,34.0,30.05,WSW,248,0.0,-999.0,86,0.00,,,0.00,Wunderground v.1.15,2013-05-13 07:05:00,
2013-05-13 03:10:00,37.8,34.0,30.05,WSW,248,0.0,-999.0,86,0.00,,,0.00,Wunderground v.1.15,2013-05-13 07:10:00,
2013-05-13 03:15:00,36.9,34.0,30.04,SW,225,0.0,-999.0,89,0.00,,,0.00,Wunderground v.1.15,2013-05-13 07:15:00,
2013-05-13 03:20:00,36.9,34.0,30.04,SW,225,0.0,-999.0,89,0.00,,,0.00,Wunderground v.1.15,2013-05-13 07:20:00,
2013-05-13 03:25:00,36.9,34.0,30.04,SW,225,0.0,-999.0,89,0.00,,,0.00,Wunderground v.1.15,2013-05-13 07:25:00,
2013-05-13 03:30:00,36.9,34.0,30.04,SW,225,0.0,-999.0,89,0.00,,,0.00,Wunderground v.1.15,2013-05-13 07:30:00,
2013-05-13 03:35:00,36.9,34.0,30.04,SW,225,0.0,-999.0,89,0.00,,,0.00,Wunderground v.1.15,2013-05-13 07:35:00,
2013-05-13 03:40:00,36.9,34.0,30.04,SW,225,0.0,-999.0,89,0.00,,,0.00,Wunderground v.1.15,2013-05-13 07:40:00,
2013-05-13 03:45:00,37.7,34.2,30.04,WSW,248,1.0,-999.0,87,0.00,,,0.00,Wunderground v.1.15,2013-05-13 07:45:00,
2013-05-13 03:50:00,37.7,34.2,30.04,WSW,248,1.0,-999.0,87,0.00,,,0.00,Wunderground v.1.15,2013-05-13 07:50:00,
2013-05-13 03:55:00,37.7,34.2,30.04,WSW,248,1.0,-999.0,87,0.00,,,0.00,Wunderground v.1.15,2013-05-13 07:55:00,
2013-05-13 04:00:00,37.7,34.2,30.04,WSW,248,1.0,-999.0,87,0.00,,,0.00,Wunderground v.1.15,2013-05-13 08:00:00,
2013-05-13 04:05:00,37.7,34.2,30.04,WSW,248,1.0,-999.0,87,0.00,,,0.00,Wunderground v.1.15,2013-05-13 08:05:00,
2013-05-13 04:10:00,37.7,34.2,30.04,WSW,248,1.0,-999.0,87,0.00,,,0.00,Wunderground v.1.15,2013-05-13 08:10:00,
2013-05-13 04:15:00,37.1,34.2,30.05,WSW,248,0.0,-999.0,89,0.00,,,0.00,Wunderground v.1.15,2013-05-13 08:15:00,
2013-05-13 04:20:00,37.1,34.2,30.05,WSW,248,0.0,-999.0,89,0.00,,,0.00,Wunderground v.1.15,2013-05-13 08:20:00,
2013-05-13 04:25:00,37.1,34.2,30.05,WSW,248,0.0,-999.0,89,0.00,,,0.00,Wunderground v.1.15,2013-05-13 08:25:00,
2013-05-13 04:30:00,37.1,34.2,30.05,WSW,248,0.0,-999.0,89,0.00,,,0.00,Wunderground v.1.15,2013-05-13 08:30:00,
2013-05-13 04:35:00,37.1,34.2,30.05,WSW,248,0.0,-999.0,89,0.00,,,0.00,Wunderground v.1.15,2013-05-13 08:35:00,
2013-05-13 04:40:00,37.1,34.2,30.05,WSW,248,0.0,-999.0,89,0.00,,,0.00,Wunderground v.1.15,2013-05-13 08:40:00,
2013-05-13 04:45:00,37.4,33.9,30.06,SSW,203,1.0,-999.0,87,0.00,,,0.00,Wunderground v.1.15,2013-05-13 08:45:00,
2013-05-13 04:50:00,37.4,33.9,30.06,SSW,203,1.0,-999.0,87,0.00,,,0.00,Wunderground v.1.15,2013-05-13 08:50:00,
2013-05-13 04:55:00,37.4,33.9,30.06,SSW,203,1.0,-999.0,87,0.00,,,0.00,Wunderground v.1.15,2013-05-13 08:55:00,
2013-05-13 05:00:00,37.4,33.9,30.06,SSW,203,1.0,-999.0,87,0.00,,,0.00,Wunderground v.1.15,2013-05-13 09:00:00,
2013-05-13 05:05:00,37.4,33.9,30.06,SSW,203,1.0,-999.0,87,0.00,,,0.00,Wunderground v.1.15,2013-05-13 09:05:00,
2013-05-13 05:10:00,37.4,33.9,30.06,SSW,203,1.0,-999.0,87,0.00,,,0.00,Wunderground v.1.15,2013-05-13 09:10:00,
2013-05-13 05:15:00,36.6,33.7,30.07,West,270,0.0,-999.0,89,0.00,,,0.00,Wunderground v.1.15,2013-05-13 09:15:00,
2013-05-13 05:20:00,36.6,33.7,30.07,West,270,0.0,-999.0,89,0.00,,,0.00,Wunderground v.1.15,2013-05-13 09:20:00,
2013-05-13 05:25:00,36.6,33.7,30.07,West,270,0.0,-999.0,89,0.00,,,0.00,Wunderground v.1.15,2013-05-13 09:25:00,
2013-05-13 05:30:00,36.6,33.7,30.07,West,270,0.0,-999.0,89,0.00,,,0.00,Wunderground v.1.15,2013-05-13 09:30:00,
2013-05-13 05:35:00,36.6,33.7,30.07,West,270,0.0,-999.0,89,0.00,,,0.00,Wunderground v.1.15,2013-05-13 09:35:00,
2013-05-13 05:40:00,36.6,33.7,30.07,West,270,0.0,-999.0,89,0.00,,,0.00,Wunderground v.1.15,2013-05-13 09:40:00,
2013-05-13 05:45:00,36.7,33.8,30.07,SE,135,1.0,-999.0,89,0.00,,,0.00,Wunderground v.1.15,2013-05-13 09:45:00,
2013-05-13 05:50:00,36.7,33.8,30.07,SE,135,1.0,-999.0,89,0.00,,,0.00,Wunderground v.1.15,2013-05-13 09:50:00,
2013-05-13 05:55:00,36.7,33.8,30.07,SE,135,1.0,-999.0,89,0.00,,,0.00,Wunderground v.1.15,2013-05-13 09:55:00,
2013-05-13 06:00:00,36.7,33.8,30.07,SE,135,1.0,-999.0,89,0.00,,,0.00,Wunderground v.1.15,2013-05-13 10:00:00,
2013-05-13 06:05:00,36.7,33.8,30.07,SE,135,1.0,-999.0,89,0.00,,,0.00,Wunderground v.1.15,2013-05-13 10:05:00,
2013-05-13 06:10:00,36.7,33.8,30.07,SE,135,1.0,-999.0,89,0.00,,,0.00,Wunderground v.1.15,2013-05-13 10:10:00,
2013-05-13 06:15:00,36.7,34.6,30.08,WSW,248,1.0,-999.0,92,0.00,,,0.00,Wunderground v.1.15,2013-05-13 10:15:00,
2013-05-13 06:20:00,36.7,34.6,30.08,WSW,248,1.0,-999.0,92,0.00,,,0.00,Wunderground v.1.15,2013-05-13 10:20:00,
2013-05-13 06:25:00,36.7,34.6,30.08,WSW,248,1.0,-999.0,92,0.00,,,0.00,Wunderground v.1.15,2013-05-13 10:25:00,
2013-05-13 06:30:00,36.7,34.6,30.08,WSW,248,1.0,-999.0,92,0.00,,,0.00,Wunderground v.1.15,2013-05-13 10:30:00,
2013-05-13 06:35:00,36.7,34.6,30.08,WSW,248,1.0,-999.0,92,0.00,,,0.00,Wunderground v.1.15,2013-05-13 10:35:00,
2013-05-13 06:40:00,36.7,34.6,30.08,WSW,248,1.0,-999.0,92,0.00,,,0.00,Wunderground v.1.15,2013-05-13 10:40:00,
2013-05-13 06:45:00,37.7,35.6,30.08,South,180,0.0,-999.0,92,0.00,,,0.00,Wunderground v.1.15,2013-05-13 10:45:00,
2013-05-13 06:50:00,37.7,35.6,30.08,South,180,0.0,-999.0,92,0.00,,,0.00,Wunderground v.1.15,2013-05-13 10:50:00,
2013-05-13 06:55:00,37.7,35.6,30.08,South,180,0.0,-999.0,92,0.00,,,0.00,Wunderground v.1.15,2013-05-13 10:55:00,
2013-05-13 07:00:00,37.7,35.6,30.08,South,180,0.0,-999.0,92,0.00,,,0.00,Wunderground v.1.15,2013-05-13 11:00:00,
2013-05-13 07:05:00,37.7,35.6,30.08,South,180,0.0,-999.0,92,0.00,,,0.00,Wunderground v.1.15,2013-05-13 11:05:00,
2013-05-13 07:10:00,37.7,35.6,30.08,South,180,0.0,-999.0,92,0.00,,,0.00,Wunderground v.1.15,2013-05-13 11:10:00,
2013-05-13 07:15:00,39.3,36.3,30.10,SW,225,0.0,-999.0,89,0.00,,,0.00,Wunderground v.1.15,2013-05-13 11:15:00,
2013-05-13 07:20:00,39.3,36.3,30.10,SW,225,0.0,-999.0,89,0.00,,,0.00,Wunderground v.1.15,2013-05-13 11:20:00,
2013-05-13 07:25:00,39.3,36.3,30.10,SW,225,0.0,-999.0,89,0.00,,,0.00,Wunderground v.1.15,2013-05-13 11:25:00,
2013-05-13 07:30:00,39.3,36.3,30.10,SW,225,0.0,-999.0,89,0.00,,,0.00,Wunderground v.1.15,2013-05-13 11:30:00,
2013-05-13 08:05:00,42.4,36.0,30.11,WSW,256,1.0,2.0,78,0.00,,,0.00,Wunderground v.1.15,2013-05-13 12:05:00,
2013-05-13 08:10:00,42.8,36.4,30.12,West,278,1.0,1.0,78,0.00,,,0.00,Wunderground v.1.15,2013-05-13 12:10:00,
2013-05-13 08:15:00,42.7,36.6,30.12,NE,50,2.0,2.0,79,0.00,,,0.00,Wunderground v.1.15,2013-05-13 12:15:00,
2013-05-13 08:20:00,42.4,36.7,30.12,ENE,59,2.0,2.0,80,0.00,,,0.00,Wunderground v.1.15,2013-05-13 12:20:00,
2013-05-13 08:25:00,42.5,36.1,30.13,ENE,71,2.0,2.0,78,0.00,,,0.00,Wunderground v.1.15,2013-05-13 12:25:00,
2013-05-13 08:30:00,43.0,36.6,30.12,ESE,105,1.0,1.0,78,0.00,,,0.00,Wunderground v.1.15,2013-05-13 12:30:00,
2013-05-13 08:35:00,43.5,36.1,30.12,NE,46,1.0,1.0,75,0.00,,,0.00,Wunderground v.1.15,2013-05-13 12:35:00,
2013-05-13 08:40:00,43.9,36.5,30.13,NNE,30,1.0,1.0,75,0.00,,,0.00,Wunderground v.1.15,2013-05-13 12:40:00,
2013-05-13 08:45:00,44.7,36.6,30.13,NE,36,1.0,1.0,73,0.00,,,0.00,Wunderground v.1.15,2013-05-13 12:45:00,
2013-05-13 08:50:00,45.7,37.2,30.13,NE,38,1.0,1.0,72,0.00,,,0.00,Wunderground v.1.15,2013-05-13 12:50:00,
2013-05-13 08:55:00,46.5,36.5,30.13,NE,53,1.0,1.0,68,0.00,,,0.00,Wunderground v.1.15,2013-05-13 12:55:00,
2013-05-13 09:00:00,47.4,35.4,30.13,NE,53,1.0,1.0,63,0.00,,,0.00,Wunderground v.1.15,2013-05-13 13:00:00,
2013-05-13 09:05:00,47.9,33.4,30.13,ESE,122,1.0,1.0,57,0.00,,,0.00,Wunderground v.1.15,2013-05-13 13:05:00,
2013-05-13 09:10:00,48.8,34.7,30.13,SW,229,1.0,1.0,58,0.00,,,0.00,Wunderground v.1.15,2013-05-13 13:10:00,
2013-05-13 09:15:00,49.7,32.8,30.13,SW,228,2.0,3.0,52,0.00,,,0.00,Wunderground v.1.15,2013-05-13 13:15:00,
2013-05-13 09:20:00,50.2,33.2,30.13,West,259,3.0,3.0,52,0.00,,,0.00,Wunderground v.1.15,2013-05-13 13:20:00,
2013-05-13 09:25:00,50.5,34.0,30.13,NW,323,3.0,4.0,53,0.00,,,0.00,Wunderground v.1.15,2013-05-13 13:25:00,
2013-05-13 09:30:00,50.3,31.3,30.14,SW,226,4.0,9.0,48,0.00,,,0.00,Wunderground v.1.15,2013-05-13 13:30:00,
2013-05-13 09:35:00,50.5,32.5,30.14,West,267,5.0,9.0,50,0.00,,,0.00,Wunderground v.1.15,2013-05-13 13:35:00,
2013-05-13 09:40:00,50.3,30.8,30.14,WSW,245,4.0,4.0,47,0.00,,,0.00,Wunderground v.1.15,2013-05-13 13:40:00,
2013-05-13 09:45:00,51.0,31.5,30.14,SW,233,3.0,6.0,47,0.00,,,0.00,Wunderground v.1.15,2013-05-13 13:45:00,
2013-05-13 09:50:00,50.7,30.1,30.14,WSW,247,4.0,4.0,45,0.00,,,0.00,Wunderground v.1.15,2013-05-13 13:50:00,
2013-05-13 09:55:00,50.3,30.3,30.13,West,267,4.0,4.0,46,0.00,,,0.00,Wunderground v.1.15,2013-05-13 13:55:00,
2013-05-13 10:00:00,50.6,31.1,30.13,SW,215,4.0,4.0,47,0.00,,,0.00,Wunderground v.1.15,2013-05-13 14:00:00,
2013-05-13 10:05:00,51.2,30.6,30.13,SW,215,6.0,6.0,45,0.00,,,0.00,Wunderground v.1.15,2013-05-13 14:05:00,
2013-05-13 10:10:00,51.6,29.2,30.13,West,263,7.0,7.0,42,0.00,,,0.00,Wunderground v.1.15,2013-05-13 14:10:00,
2013-05-13 10:15:00,51.9,27.7,30.13,WSW,253,7.0,11.0,39,0.00,,,0.00,Wunderground v.1.15,2013-05-13 14:15:00,
2013-05-13 10:20:00,51.9,27.7,30.13,West,267,8.0,12.0,39,0.00,,,0.00,Wunderground v.1.15,2013-05-13 14:20:00,
2013-05-13 10:25:00,51.8,27.6,30.13,WSW,250,9.0,12.0,39,0.00,,,0.00,Wunderground v.1.15,2013-05-13 14:25:00,
2013-05-13 10:30:00,52.2,28.0,30.13,West,269,7.0,10.0,39,0.00,,,0.00,Wunderground v.1.15,2013-05-13 14:30:00,
2013-05-13 10:35:00,51.9,30.6,30.13,WNW,285,5.0,10.0,44,0.00,,,0.00,Wunderground v.1.15,2013-05-13 14:35:00,
2013-05-13 10:40:00,52.3,28.7,30.13,WSW,242,3.0,7.0,40,0.00,,,0.00,Wunderground v.1.15,2013-05-13 14:40:00,
2013-05-13 10:45:00,53.0,28.0,30.13,West,264,5.0,7.0,38,0.00,,,0.00,Wunderground v.1.15,2013-05-13 14:45:00,
2013-05-13 10:50:00,52.8,25.9,30.13,NNW,338,6.0,6.0,35,0.00,,,0.00,Wunderground v.1.15,2013-05-13 14:50:00,
2013-05-13 10:55:00,52.7,27.1,30.13,WSW,257,5.0,6.0,37,0.00,,,0.00,Wunderground v.1.15,2013-05-13 14:55:00,
2013-05-13 11:00:00,53.6,27.9,30.13,West,263,5.0,5.0,37,0.00,,,0.00,Wunderground v.1.15,2013-05-13 15:00:00,
2013-05-13 11:05:00,53.9,25.4,30.13,West,280,7.0,7.0,33,0.00,,,0.00,Wunderground v.1.15,2013-05-13 15:05:00,
2013-05-13 11:10:00,53.5,24.3,30.12,SW,221,9.0,9.0,32,0.00,,,0.00,Wunderground v.1.15,2013-05-13 15:10:00,
2013-05-13 11:15:00,54.1,28.4,30.13,West,269,7.0,9.0,37,0.00,,,0.00,Wunderground v.1.15,2013-05-13 15:15:00,
2013-05-13 11:20:00,54.1,25.6,30.12,West,277,5.0,5.0,33,0.00,,,0.00,Wunderground v.1.15,2013-05-13 15:20:00,
2013-05-13 11:25:00,54.5,26.7,30.12,West,277,6.0,6.0,34,0.00,,,0.00,Wunderground v.1.15,2013-05-13 15:25:00,
2013-05-13 11:35:00,54.7,24.6,30.12,WNW,294,7.0,8.0,31,0.00,,,0.00,Wunderground v.1.15,2013-05-13 15:35:00,
2013-05-13 11:40:00,54.0,26.2,30.13,WSW,241,7.0,9.0,34,0.00,,,0.00,Wunderground v.1.15,2013-05-13 15:40:00,
2013-05-13 11:45:00,53.7,26.0,30.13,West,267,5.0,9.0,34,0.00,,,0.00,Wunderground v.1.15,2013-05-13 15:45:00,
2013-05-13 11:50:00,53.9,26.8,30.13,WNW,290,4.0,8.0,35,0.00,,,0.00,Wunderground v.1.15,2013-05-13 15:50:00,
2013-05-13 12:00:00,53.6,25.2,30.12,WNW,285,5.0,5.0,33,0.00,,,0.00,Wunderground v.1.15,2013-05-13 16:00:00,
2013-05-13 12:05:00,53.7,26.7,30.12,West,266,4.0,10.0,35,0.00,,,0.00,Wunderground v.1.15,2013-05-13 16:05:00,
2013-05-13 12:10:00,53.6,24.4,30.12,WNW,293,5.0,5.0,32,0.00,,,0.00,Wunderground v.1.15,2013-05-13 16:10:00,
2013-05-13 12:15:00,54.1,27.7,30.12,WNW,288,5.0,5.0,36,0.00,,,0.00,Wunderground v.1.15,2013-05-13 16:15:00,
2013-05-13 12:20:00,54.1,24.9,30.12,West,276,6.0,8.0,32,0.00,,,0.00,Wunderground v.1.15,2013-05-13 16:20:00,
2013-05-13 12:25:00,54.7,25.4,30.12,WNW,302,5.0,8.0,32,0.00,,,0.00,Wunderground v.1.15,2013-05-13 16:25:00,
2013-05-13 12:30:00,55.5,26.8,30.12,West,270,4.0,6.0,33,0.00,,,0.00,Wunderground v.1.15,2013-05-13 16:30:00,
2013-05-13 12:35:00,56.0,26.5,30.11,NW,315,5.0,6.0,32,0.00,,,0.00,Wunderground v.1.15,2013-05-13 16:35:00,
2013-05-13 12:40:00,55.6,25.4,30.11,West,278,7.0,10.0,31,0.00,,,0.00,Wunderground v.1.15,2013-05-13 16:40:00,
2013-05-13 12:45:00,54.9,25.6,30.11,West,278,8.0,10.0,32,0.00,,,0.00,Wunderground v.1.15,2013-05-13 16:45:00,
2013-05-13 12:50:00,54.8,28.3,30.11,WNW,295,6.0,6.0,36,0.00,,,0.00,Wunderground v.1.15,2013-05-13 16:50:00,
2013-05-13 12:55:00,54.6,27.5,30.11,WNW,300,4.0,8.0,35,0.00,,,0.00,Wunderground v.1.15,2013-05-13 16:55:00,
2013-05-13 13:00:00,53.9,27.5,30.12,NW,315,4.0,4.0,36,0.00,,,0.00,Wunderground v.1.15,2013-05-13 17:00:00,
2013-05-13 13:05:00,53.7,29.3,30.11,WNW,293,5.0,5.0,39,0.00,,,0.00,Wunderground v.1.15,2013-05-13 17:05:00,
2013-05-13 13:10:00,53.8,27.4,30.11,NW,323,5.0,5.0,36,0.00,,,0.00,Wunderground v.1.15,2013-05-13 17:10:00,
2013-05-13 13:14:00,53.9,28.2,30.11,SW,235,4.0,5.0,37,0.00,,,0.00,Wunderground v.1.15,2013-05-13 17:14:00,
2013-05-13 13:20:00,54.3,29.8,30.11,WNW,299,4.0,5.0,39,0.00,,,0.00,Wunderground v.1.15,2013-05-13 17:20:00,
2013-05-13 13:25:00,55.1,29.3,30.11,West,270,5.0,7.0,37,0.00,,,0.00,Wunderground v.1.15,2013-05-13 17:25:00,
2013-05-13 13:30:00,55.3,27.4,30.11,West,269,6.0,8.0,34,0.00,,,0.00,Wunderground v.1.15,2013-05-13 17:30:00,
2013-05-13 13:35:00,54.7,28.2,30.11,NW,312,6.0,8.0,36,0.00,,,0.00,Wunderground v.1.15,2013-05-13 17:35:00,
2013-05-13 13:40:00,54.4,29.9,30.11,NW,315,6.0,6.0,39,0.00,,,0.00,Wunderground v.1.15,2013-05-13 17:40:00,
2013-05-13 13:44:00,54.8,29.0,30.11,NNW,347,6.0,13.0,37,0.00,,,0.00,Wunderground v.1.15,2013-05-13 17:44:00,
2013-05-13 13:50:00,54.6,27.5,30.10,West,273,6.0,6.0,35,0.00,,,0.00,Wunderground v.1.15,2013-05-13 17:50:00,
2013-05-13 13:55:00,54.8,26.9,30.10,West,271,6.0,9.0,34,0.00,,,0.00,Wunderground v.1.15,2013-05-13 17:55:00,
2013-05-13 14:00:00,55.1,27.2,30.10,West,276,7.0,7.0,34,0.00,,,0.00,Wunderground v.1.15,2013-05-13 18:00:00,
2013-05-13 14:05:00,55.5,28.3,30.10,West,263,6.0,7.0,35,0.00,,,0.00,Wunderground v.1.15,2013-05-13 18:05:00,
2013-05-13 14:10:00,55.6,26.2,30.10,West,269,6.0,6.0,32,0.00,,,0.00,Wunderground v.1.15,2013-05-13 18:10:00,
2013-05-13 14:15:00,54.9,25.6,30.10,West,274,7.0,7.0,32,0.00,,,0.00,Wunderground v.1.15,2013-05-13 18:15:00,
2013-05-13 14:20:00,55.0,27.1,30.10,WNW,284,5.0,5.0,34,0.00,,,0.00,Wunderground v.1.15,2013-05-13 18:20:00,
2013-05-13 14:25:00,54.5,28.7,30.10,West,262,7.0,14.0,37,0.00,,,0.00,Wunderground v.1.15,2013-05-13 18:25:00,
2013-05-13 14:30:00,55.0,29.2,30.10,West,273,10.0,14.0,37,0.00,,,0.00,Wunderground v.1.15,2013-05-13 18:30:00,
2013-05-13 14:35:00,55.2,28.7,30.10,WSW,248,11.0,14.0,36,0.00,,,0.00,Wunderground v.1.15,2013-05-13 18:35:00,
2013-05-13 14:40:00,55.4,28.9,30.09,West,262,9.0,9.0,36,0.00,,,0.00,Wunderground v.1.15,2013-05-13 18:40:00,
2013-05-13 14:45:00,55.5,29.6,30.09,WSW,248,7.0,9.0,37,0.00,,,0.00,Wunderground v.1.15,2013-05-13 18:45:00,
2013-05-13 14:50:00,55.9,29.3,30.09,SW,226,7.0,9.0,36,0.00,,,0.00,Wunderground v.1.15,2013-05-13 18:50:00,
2013-05-13 14:55:00,55.9,28.6,30.09,West,261,8.0,9.0,35,0.00,,,0.00,Wunderground v.1.15,2013-05-13 18:55:00,
2013-05-13 15:00:00,56.1,30.2,30.09,WSW,245,8.0,8.0,37,0.00,,,0.00,Wunderground v.1.15,2013-05-13 19:00:00,
2013-05-13 15:05:00,56.0,29.4,30.09,WSW,237,8.0,10.0,36,0.00,,,0.00,Wunderground v.1.15,2013-05-13 19:05:00,
2013-05-13 15:10:00,56.5,29.8,30.09,West,267,7.0,7.0,36,0.00,,,0.00,Wunderground v.1.15,2013-05-13 19:10:00,
2013-05-13 15:15:00,56.5,28.4,30.08,WSW,249,9.0,9.0,34,0.00,,,0.00,Wunderground v.1.15,2013-05-13 19:15:00,
2013-05-13 15:20:00,56.6,31.9,30.08,WSW,243,10.0,10.0,39,0.00,,,0.00,Wunderground v.1.15,2013-05-13 19:20:00,
2013-05-13 15:25:00,56.4,30.4,30.08,WSW,243,10.0,10.0,37,0.00,,,0.00,Wunderground v.1.15,2013-05-13 19:25:00,
2013-05-13 15:30:00,56.2,29.6,30.08,West,262,9.0,9.0,36,0.00,,,0.00,Wunderground v.1.15,2013-05-13 19:30:00,
2013-05-13 15:35:00,55.7,30.5,30.09,NW,319,6.0,9.0,38,0.00,,,0.00,Wunderground v.1.15,2013-05-13 19:35:00,
2013-05-13 15:40:00,54.6,28.2,30.09,West,262,6.0,6.0,36,0.00,,,0.00,Wunderground v.1.15,2013-05-13 19:40:00,
2013-05-13 15:45:00,54.0,28.3,30.09,NNW,338,5.0,6.0,37,0.00,,,0.00,Wunderground v.1.15,2013-05-13 19:45:00,
2013-05-13 15:50:00,53.6,29.8,30.09,WNW,297,5.0,5.0,40,0.00,,,0.00,Wunderground v.1.15,2013-05-13 19:50:00,
2013-05-13 15:55:00,53.3,29.6,30.09,West,266,5.0,5.0,40,0.00,,,0.00,Wunderground v.1.15,2013-05-13 19:55:00,
2013-05-13 16:00:00,53.6,30.4,30.08,NW,325,4.0,8.0,41,0.00,,,0.00,Wunderground v.1.15,2013-05-13 20:00:00,
2013-05-13 16:05:00,54.3,31.1,30.08,North,6,5.0,10.0,41,0.00,,,0.00,Wunderground v.1.15,2013-05-13 20:05:00,
2013-05-13 16:10:00,55.3,31.4,30.08,WNW,302,5.0,5.0,40,0.00,,,0.00,Wunderground v.1.15,2013-05-13 20:10:00,
2013-05-13 16:15:00,55.5,29.6,30.08,West,267,4.0,7.0,37,0.00,,,0.00,Wunderground v.1.15,2013-05-13 20:15:00,
2013-05-13 16:20:00,55.8,30.5,30.08,NW,316,5.0,5.0,38,0.00,,,0.00,Wunderground v.1.15,2013-05-13 20:20:00,
2013-05-13 16:25:00,55.9,31.3,30.08,West,274,6.0,6.0,39,0.00,,,0.00,Wunderground v.1.15,2013-05-13 20:25:00,
2013-05-13 16:30:00,56.5,32.4,30.08,WSW,253,6.0,14.0,40,0.00,,,0.00,Wunderground v.1.15,2013-05-13 20:30:00,
2013-05-13 16:35:00,55.5,30.9,30.08,WNW,282,6.0,14.0,39,0.00,,,0.00,Wunderground v.1.15,2013-05-13 20:35:00,
2013-05-13 16:40:00,53.8,30.0,30.08,WSW,248,9.0,15.0,40,0.00,,,0.00,Wunderground v.1.15,2013-05-13 20:40:00,
2013-05-13 16:45:00,53.4,29.0,30.08,West,280,11.0,15.0,39,0.00,,,0.00,Wunderground v.1.15,2013-05-13 20:45:00,
2013-05-13 16:50:00,53.6,29.8,30.08,West,266,7.0,7.0,40,0.00,,,0.00,Wunderground v.1.15,2013-05-13 20:50:00,
2013-05-13 16:55:00,54.7,29.6,30.08,NNW,346,4.0,7.0,38,0.00,,,0.00,Wunderground v.1.15,2013-05-13 20:55:00,
2013-05-13 17:00:00,54.9,29.1,30.08,West,271,3.0,3.0,37,0.00,,,0.00,Wunderground v.1.15,2013-05-13 21:00:00,
2013-05-13 17:10:00,55.9,30.6,30.08,West,269,4.0,4.0,38,0.00,,,0.00,Wunderground v.1.15,2013-05-13 21:10:00,
2013-05-13 17:15:00,55.4,28.9,30.08,West,269,6.0,7.0,36,0.00,,,0.00,Wunderground v.1.15,2013-05-13 21:15:00,
2013-05-13 17:20:00,55.2,30.0,30.08,WNW,287,6.0,6.0,38,0.00,,,0.00,Wunderground v.1.15,2013-05-13 21:20:00,
2013-05-13 17:25:00,55.3,30.7,30.08,WNW,290,5.0,6.0,39,0.00,,,0.00,Wunderground v.1.15,2013-05-13 21:25:00,
2013-05-13 17:30:00,54.5,30.0,30.08,NW,304,6.0,10.0,39,0.00,,,0.00,Wunderground v.1.15,2013-05-13 21:30:00,
2013-05-13 17:35:00,54.1,30.9,30.08,WNW,287,6.0,10.0,41,0.00,,,0.00,Wunderground v.1.15,2013-05-13 21:35:00,
2013-05-13 17:45:00,54.4,31.2,30.08,West,269,5.0,5.0,41,0.00,,,0.00,Wunderground v.1.15,2013-05-13 21:45:00,
2013-05-13 17:50:00,54.9,31.6,30.08,NNW,335,5.0,5.0,41,0.00,,,0.00,Wunderground v.1.15,2013-05-13 21:50:00,
2013-05-13 17:55:00,54.4,31.8,30.08,WNW,291,7.0,9.0,42,0.00,,,0.00,Wunderground v.1.15,2013-05-13 21:55:00,
2013-05-13 18:00:00,54.3,33.4,30.08,NW,317,7.0,7.0,45,0.00,,,0.00,Wunderground v.1.15,2013-05-13 22:00:00,
2013-05-13 18:05:00,54.5,32.4,30.08,West,259,6.0,7.0,43,0.00,,,0.00,Wunderground v.1.15,2013-05-13 22:05:00,
2013-05-13 18:10:00,54.5,32.4,30.08,North,354,5.0,7.0,43,0.00,,,0.00,Wunderground v.1.15,2013-05-13 22:10:00,
2013-05-13 18:15:00,54.6,30.7,30.08,NW,312,4.0,7.0,40,0.00,,,0.00,Wunderground v.1.15,2013-05-13 22:15:00,
2013-05-13 18:20:00,54.6,30.1,30.08,WNW,295,5.0,7.0,39,0.00,,,0.00,Wunderground v.1.15,2013-05-13 22:20:00,
2013-05-13 18:25:00,54.7,30.8,30.08,WNW,287,5.0,7.0,40,0.00,,,0.00,Wunderground v.1.15,2013-05-13 22:25:00,
2013-05-13 18:30:00,54.9,30.4,30.08,NW,312,4.0,5.0,39,0.00,,,0.00,Wunderground v.1.15,2013-05-13 22:30:00,
2013-05-13 18:35:00,54.4,31.2,30.08,WNW,291,4.0,6.0,41,0.00,,,0.00,Wunderground v.1.15,2013-05-13 22:35:00,
2013-05-13 18:45:00,53.1,31.2,30.08,NW,306,4.0,6.0,43,0.00,,,0.00,Wunderground v.1.15,2013-05-13 22:45:00,
2013-05-13 18:50:00,52.6,30.7,30.09,WNW,282,3.0,3.0,43,0.00,,,0.00,Wunderground v.1.15,2013-05-13 22:50:00,
2013-05-13 18:55:00,52.3,31.6,30.09,West,266,3.0,3.0,45,0.00,,,0.00,Wunderground v.1.15,2013-05-13 22:55:00,
2013-05-13 19:00:00,51.9,31.2,30.09,West,269,3.0,3.0,45,0.00,,,0.00,Wunderground v.1.15,2013-05-13 23:00:00,
2013-05-13 19:05:00,51.8,31.7,30.09,West,260,2.0,5.0,46,0.00,,,0.00,Wunderground v.1.15,2013-05-13 23:05:00,
2013-05-13 19:10:00,51.9,31.2,30.09,West,264,2.0,2.0,45,0.00,,,0.00,Wunderground v.1.15,2013-05-13 23:10:00,
2013-05-13 19:15:00,51.8,32.2,30.10,NW,315,2.0,4.0,47,0.00,,,0.00,Wunderground v.1.15,2013-05-13 23:15:00,
2013-05-13 19:20:00,51.7,31.0,30.10,WNW,284,3.0,3.0,45,0.00,,,0.00,Wunderground v.1.15,2013-05-13 23:20:00,
2013-05-13 19:25:00,51.5,30.3,30.10,NW,325,4.0,4.0,44,0.00,,,0.00,Wunderground v.1.15,2013-05-13 23:25:00,
2013-05-13 19:30:00,51.6,32.0,30.10,WNW,282,3.0,3.0,47,0.00,,,0.00,Wunderground v.1.15,2013-05-13 23:30:00,
2013-05-13 19:35:00,51.8,31.7,30.11,NW,323,3.0,3.0,46,0.00,,,0.00,Wunderground v.1.15,2013-05-13 23:35:00,
2013-05-13 19:40:00,51.9,31.7,30.11,NW,316,2.0,4.0,46,0.00,,,0.00,Wunderground v.1.15,2013-05-13 23:40:00,
2013-05-13 19:45:00,51.6,32.0,30.11,WNW,295,3.0,4.0,47,0.00,,,0.00,Wunderground v.1.15,2013-05-13 23:45:00,
2013-05-13 19:50:00,51.3,33.3,30.11,NW,319,4.0,4.0,50,0.00,,,0.00,Wunderground v.1.15,2013-05-13 23:50:00,
2013-05-13 19:55:00,50.7,32.7,30.11,North,4,4.0,4.0,50,0.00,,,0.00,Wunderground v.1.15,2013-05-13 23:55:00,
2013-05-13 20:00:00,50.1,33.1,30.11,NNE,18,3.0,5.0,52,0.00,,,0.00,Wunderground v.1.15,2013-05-14 00:00:00,
2013-05-13 20:05:00,49.6,33.2,30.11,NNE,18,3.0,5.0,53,0.00,,,0.00,Wunderground v.1.15,2013-05-14 00:05:00,
2013-05-13 20:10:00,49.1,32.7,30.11,NNE,19,3.0,3.0,53,0.00,,,0.00,Wunderground v.1.15,2013-05-14 00:10:00,
2013-05-13 20:15:00,48.7,33.2,30.12,North,349,2.0,3.0,55,0.00,,,0.00,Wunderground v.1.15,2013-05-14 00:15:00,
2013-05-13 20:20:00,48.3,32.9,30.12,North,356,1.0,1.0,55,0.00,,,0.00,Wunderground v.1.15,2013-05-14 00:20:00,
2013-05-13 20:25:00,47.9,33.4,30.12,WNW,294,1.0,2.0,57,0.00,,,0.00,Wunderground v.1.15,2013-05-14 00:25:00,
2013-05-13 20:30:00,47.7,32.8,30.12,West,276,1.0,1.0,56,0.00,,,0.00,Wunderground v.1.15,2013-05-14 00:30:00,
2013-05-13 20:35:00,47.3,32.8,30.13,NNW,347,1.0,1.0,57,0.00,,,0.00,Wunderground v.1.15,2013-05-14 00:35:00,
2013-05-13 20:40:00,47.1,33.1,30.13,North,359,1.0,1.0,58,0.00,,,0.00,Wunderground v.1.15,2013-05-14 00:40:00,
2013-05-13 20:45:00,46.5,33.4,30.13,North,4,1.0,2.0,60,0.00,,,0.00,Wunderground v.1.15,2013-05-14 00:45:00,
2013-05-13 20:50:00,46.2,32.2,30.14,North,355,1.0,1.0,58,0.00,,,0.00,Wunderground v.1.15,2013-05-14 00:50:00,
2013-05-13 20:55:00,46.0,32.9,30.14,North,356,1.0,1.0,60,0.00,,,0.00,Wunderground v.1.15,2013-05-14 00:55:00,
2013-05-13 21:00:00,45.7,31.8,30.14,North,356,0.0,0.0,58,0.00,,,0.00,Wunderground v.1.15,2013-05-14 01:00:00,
2013-05-13 21:05:00,45.3,32.6,30.14,North,355,0.0,0.0,61,0.00,,,0.00,Wunderground v.1.15,2013-05-14 01:05:00,
2013-05-13 21:10:00,44.6,33.6,30.14,North,355,0.0,0.0,65,0.00,,,0.00,Wunderground v.1.15,2013-05-14 01:10:00,
2013-05-13 21:15:00,43.9,34.0,30.15,North,355,0.0,0.0,68,0.00,,,0.00,Wunderground v.1.15,2013-05-14 01:15:00,
2013-05-13 21:20:00,43.2,33.3,30.15,North,355,0.0,0.0,68,0.00,,,0.00,Wunderground v.1.15,2013-05-14 01:20:00,
2013-05-13 21:25:00,42.6,33.5,30.16,North,355,0.0,0.0,70,0.00,,,0.00,Wunderground v.1.15,2013-05-14 01:25:00,
2013-05-13 21:30:00,42.8,33.7,30.16,NE,36,0.0,1.0,70,0.00,,,0.00,Wunderground v.1.15,2013-05-14 01:30:00,
2013-05-13 21:35:00,43.2,34.1,30.16,East,79,1.0,1.0,70,0.00,,,0.00,Wunderground v.1.15,2013-05-14 01:35:00,
2013-05-13 21:40:00,43.2,34.4,30.17,East,88,1.0,1.0,71,0.00,,,0.00,Wunderground v.1.15,2013-05-14 01:40:00,
2013-05-13 21:45:00,42.9,34.8,30.17,NNW,333,0.0,1.0,73,0.00,,,0.00,Wunderground v.1.15,2013-05-14 01:45:00,
2013-05-13 21:50:00,42.5,34.8,30.17,NNW,333,0.0,0.0,74,0.00,,,0.00,Wunderground v.1.15,2013-05-14 01:50:00,
2013-05-13 21:55:00,42.2,34.8,30.17,NNW,332,0.0,0.0,75,0.00,,,0.00,Wunderground v.1.15,2013-05-14 01:55:00,
2013-05-13 22:00:00,41.7,35.0,30.17,West,276,1.0,1.0,77,0.00,,,0.00,Wunderground v.1.15,2013-05-14 02:00:00,
2013-05-13 22:05:00,41.1,34.4,30.17,West,275,1.0,1.0,77,0.00,,,0.00,Wunderground v.1.15,2013-05-14 02:05:00,
2013-05-13 22:10:00,40.7,34.7,30.18,West,275,1.0,1.0,79,0.00,,,0.00,Wunderground v.1.15,2013-05-14 02:10:00,
2013-05-13 22:15:00,40.4,34.7,30.18,West,273,1.0,1.0,80,0.00,,,0.00,Wunderground v.1.15,2013-05-14 02:15:00,
2013-05-13 22:20:00,40.0,34.3,30.18,West,271,0.0,0.0,80,0.00,,,0.00,Wunderground v.1.15,2013-05-14 02:20:00,
2013-05-13 22:25:00,39.6,34.2,30.18,West,271,0.0,0.0,81,0.00,,,0.00,Wunderground v.1.15,2013-05-14 02:25:00,
2013-05-13 22:30:00,39.1,34.1,30.18,West,273,0.0,0.0,82,0.00,,,0.00,Wunderground v.1.15,2013-05-14 02:30:00,
2013-05-13 22:35:00,38.7,33.7,30.19,West,273,0.0,0.0,82,0.00,,,0.00,Wunderground v.1.15,2013-05-14 02:35:00,
2013-05-13 22:40:00,38.5,34.1,30.19,West,271,0.0,0.0,84,0.00,,,0.00,Wunderground v.1.15,2013-05-14 02:40:00,
2013-05-13 22:45:00,38.3,34.2,30.19,West,271,0.0,0.0,85,0.00,,,0.00,Wunderground v.1.15,2013-05-14 02:45:00,
2013-05-13 22:50:00,38.3,34.2,30.19,West,273,0.0,0.0,85,0.00,,,0.00,Wunderground v.1.15,2013-05-14 02:50:00,
2013-05-13 22:55:00,38.1,34.3,30.19,WSW,240,0.0,0.0,86,0.00,,,0.00,Wunderground v.1.15,2013-05-14 02:55:00,
2013-05-13 23:00:00,37.9,34.1,30.19,West,269,1.0,3.0,86,0.00,,,0.00,Wunderground v.1.15,2013-05-14 03:00:00,
2013-05-13 23:05:00,38.0,33.9,30.19,WSW,256,2.0,3.0,85,0.00,,,0.00,Wunderground v.1.15,2013-05-14 03:05:00,
2013-05-13 23:10:00,38.3,33.6,30.19,West,267,2.0,2.0,83,0.00,,,0.00,Wunderground v.1.15,2013-05-14 03:10:00,
2013-05-13 23:15:00,38.3,33.6,30.19,WSW,253,1.0,2.0,83,0.00,,,0.00,Wunderground v.1.15,2013-05-14 03:15:00,
2013-05-13 23:20:00,38.2,33.5,30.20,ESE,113,1.0,1.0,83,0.00,,,0.00,Wunderground v.1.15,2013-05-14 03:20:00,
2013-05-13 23:25:00,38.5,34.1,30.20,East,100,1.0,1.0,84,0.00,,,0.00,Wunderground v.1.15,2013-05-14 03:25:00,
2013-05-13 23:30:00,38.3,34.2,30.19,East,100,1.0,1.0,85,0.00,,,0.00,Wunderground v.1.15,2013-05-14 03:30:00,
2013-05-13 23:35:00,38.0,34.2,30.19,East,99,0.0,1.0,86,0.00,,,0.00,Wunderground v.1.15,2013-05-14 03:35:00,
2013-05-13 23:40:00,37.7,33.9,30.19,WSW,257,0.0,1.0,86,0.00,,,0.00,Wunderground v.1.15,2013-05-14 03:40:00,
2013-05-13 23:45:00,37.4,33.9,30.19,WSW,240,1.0,2.0,87,0.00,,,0.00,Wunderground v.1.15,2013-05-14 03:45:00,
2013-05-13 23:50:00,37.2,33.7,30.19,WSW,248,1.0,1.0,87,0.00,,,0.00,Wunderground v.1.15,2013-05-14 03:50:00,
2013-05-13 23:55:00,36.8,33.3,30.19,South,173,1.0,1.0,87,0.00,,,0.00,Wunderground v.1.15,2013-05-14 03:55:00,